Aeroporto :
LOGIN :

Iscrizione | Disclaimer

   EN    FR    IT 

 










Sommario :    VFR   VFR Marginale   IFR   IFR Intensivo   IFR Molto Intensivo
Visibilità : 
Base nubi : 
>= 8 km
>= 3000ft
5 / 8 km
1000 / 3000 ft
1500m / 5 km
500 / 1000 ft
800 / 1500m
200 / 500 ft
< 800m
< 200 ft
Simboli :   Temporali  Nebbia  Neve Forte  Precipitazioni Forti  Vento > 20 kt
SIGMETs :   Varie  Temporali  Ghiacco  Turbolenza  Onda orograficha  Ceneri Vulcaniche







- Altitudine del aeroporto : 90 ft
- Codice IATA : NTE
- Carte del aeroporto


LFRS - Nantes

ULTIMO METAR :
  • 161900Z AUTO 30001KT CAVOK 11/10 Q1019 NOSIG

METARs OBSOLETI :
  • 161830Z AUTO 28003KT CAVOK 12/10 Q1019 NOSIG
  • 161800Z AUTO 27003KT CAVOK 13/11 Q1019 NOSIG
  • 161730Z AUTO 29004KT 260V320 CAVOK 15/11 Q1019 NOSIG
  • 161700Z AUTO 29007KT 9999 FEW011 16/11 Q1019 NOSIG
  • 161630Z AUTO 26006KT CAVOK 17/11 Q1018 NOSIG

TAF TAF LFRS
Valido dal 16 a 18 ore il 18 a 00 ore UTC


161700Z 1618/1724 27008KT 9999 SCT040
BECMG 1621/1623 VRB03KT
TEMPO 1700/1706 2000 BR
PROB40
TEMPO 1704/1708 0500 FG VV///
BECMG 1708/1710 NSW
ATIS : +33 2 40 05 12 74
Nessun NOTAM noto per questo aeroporto.



MetMap, La meteo Aeronautica in un colpo d'occhio ! - Copyright ORBIFLY Dicembre 2007 - Disclaimer

ORBIFLY MET'MAP TEAM :

Programmazione e sviluppo : Alexandra Zaïnal
Concezione e sviluppo : Baudouin d'Aumeries
Co-Programmazione e sviluppo : Marc-Olivier Méhu
Supporto tecnico e logistico : Manuel Goepfert
Aiuto per la traduzione : Arnaldo La Scala

Contatto : metmap@orbifly.com




FONTI E CREDITI :

   NOAA